createdAt,value
2018-09-19T00:02:05.024Z,100121.00
2018-09-19T00:04:32.568Z,100123.00
2018-09-19T00:07:00.102Z,100123.00
2018-09-19T00:09:27.643Z,100119.00
2018-09-19T00:11:55.194Z,100119.00
2018-09-19T00:14:22.756Z,100121.00
2018-09-19T00:16:50.266Z,100118.00
2018-09-19T00:19:17.794Z,100122.00
2018-09-19T00:21:45.299Z,100117.00
2018-09-19T00:24:12.856Z,100122.00
2018-09-19T00:26:40.379Z,100119.00
2018-09-19T00:29:07.930Z,100114.00
2018-09-19T00:31:35.441Z,100119.00
2018-09-19T00:34:02.951Z,100120.00
2018-09-19T00:36:30.461Z,100116.00
2018-09-19T00:38:57.987Z,100124.00
2018-09-19T00:41:25.516Z,100121.00
2018-09-19T00:43:53.036Z,100126.00
2018-09-19T00:46:20.552Z,100133.00
2018-09-19T00:48:48.085Z,100134.00
2018-09-19T00:51:15.600Z,100133.00
2018-09-19T00:53:43.247Z,100140.00
2018-09-19T00:56:10.839Z,100143.00
2018-09-19T00:58:38.340Z,100138.00
2018-09-19T01:01:05.882Z,100147.00
2018-09-19T01:03:33.457Z,100143.00
2018-09-19T01:06:00.964Z,100136.00
2018-09-19T01:08:28.492Z,100138.00
2018-09-19T01:10:56.081Z,100146.00
2018-09-19T01:13:23.567Z,100138.00
2018-09-19T01:15:51.110Z,100143.00
2018-09-19T01:18:18.640Z,100140.00
2018-09-19T01:20:46.176Z,100147.00
2018-09-19T01:23:13.680Z,100144.00
2018-09-19T01:25:41.198Z,100147.00
2018-09-19T01:28:08.714Z,100158.00
2018-09-19T01:30:36.249Z,100166.00
2018-09-19T01:33:03.772Z,100164.00
2018-09-19T01:35:31.314Z,100165.00
2018-09-19T01:37:58.831Z,100170.00
2018-09-19T01:40:26.385Z,100172.00
2018-09-19T01:42:53.902Z,100174.00
2018-09-19T01:45:21.430Z,100172.00
2018-09-19T01:47:48.962Z,100169.00
2018-09-19T01:50:16.738Z,100164.00
2018-09-19T01:52:44.259Z,100174.00
2018-09-19T01:55:11.801Z,100187.00
2018-09-19T01:57:39.319Z,100187.00
2018-09-19T02:00:06.861Z,100190.00
2018-09-19T02:02:34.396Z,100193.00
2018-09-19T02:05:01.973Z,100190.00
2018-09-19T02:07:29.502Z,100184.00
2018-09-19T02:09:57.026Z,100202.00
2018-09-19T02:12:24.574Z,100194.00
2018-09-19T02:14:52.092Z,100193.00
2018-09-19T02:17:19.622Z,100198.00
2018-09-19T02:19:47.152Z,100195.00
2018-09-19T02:22:14.672Z,100190.00
2018-09-19T02:24:42.476Z,100204.00
2018-09-19T02:27:10.014Z,100202.00
2018-09-19T02:29:37.561Z,100199.00
2018-09-19T02:32:05.249Z,100206.00
2018-09-19T02:34:32.769Z,100192.00
2018-09-19T02:37:00.316Z,100203.00
2018-09-19T02:39:27.822Z,100214.00
2018-09-19T02:41:55.343Z,100199.00
2018-09-19T02:44:22.859Z,100209.00
2018-09-19T02:46:50.420Z,100222.00
2018-09-19T02:49:17.935Z,100218.00
2018-09-19T02:51:45.472Z,100211.00
2018-09-19T02:54:13.060Z,100218.00
2018-09-19T02:56:40.595Z,100228.00
2018-09-19T02:59:08.156Z,100223.00
2018-09-19T03:01:35.655Z,100216.00
2018-09-19T03:04:04.359Z,100227.00
2018-09-19T03:06:31.889Z,100234.00
2018-09-19T03:08:59.407Z,100230.00
2018-09-19T03:11:26.957Z,100230.00
2018-09-19T03:13:54.483Z,100241.00
2018-09-19T03:16:22.002Z,100225.00
2018-09-19T03:18:49.524Z,100233.00
2018-09-19T03:21:17.042Z,100231.00
2018-09-19T03:23:44.576Z,100220.00
2018-09-19T03:26:12.103Z,100228.00
2018-09-19T03:28:39.630Z,100230.00
2018-09-19T03:31:07.155Z,100238.00
2018-09-19T03:33:34.687Z,100232.00
2018-09-19T03:36:02.216Z,100230.00
2018-09-19T03:38:29.748Z,100233.00
2018-09-19T03:40:57.272Z,100236.00
2018-09-19T03:43:24.804Z,100251.00
2018-09-19T03:45:52.348Z,100244.00
2018-09-19T03:48:19.869Z,100248.00
2018-09-19T03:50:47.395Z,100258.00
2018-09-19T03:53:14.918Z,100256.00
2018-09-19T03:55:42.452Z,100251.00
2018-09-19T03:58:09.968Z,100254.00
2018-09-19T04:00:37.492Z,100264.00
2018-09-19T04:03:05.023Z,100258.00
2018-09-19T04:05:32.544Z,100257.00
2018-09-19T04:08:00.069Z,100254.00
2018-09-19T04:10:27.608Z,100265.00
2018-09-19T04:12:55.128Z,100264.00
2018-09-19T04:15:22.650Z,100279.00
2018-09-19T04:17:50.246Z,100274.00
2018-09-19T04:20:17.740Z,100281.00
2018-09-19T04:22:45.267Z,100276.00
2018-09-19T04:25:12.803Z,100276.00
2018-09-19T04:27:40.318Z,100276.00
2018-09-19T04:30:07.856Z,100282.00
2018-09-19T04:32:35.401Z,100285.00
2018-09-19T04:35:02.939Z,100291.00
2018-09-19T04:37:30.481Z,100288.00
2018-09-19T04:39:58.034Z,100291.00
2018-09-19T04:42:25.574Z,100294.00
2018-09-19T04:44:53.111Z,100295.00
2018-09-19T04:47:20.661Z,100303.00
2018-09-19T04:49:48.200Z,100299.00
2018-09-19T04:52:15.756Z,100309.00
2018-09-19T04:54:43.292Z,100315.00
2018-09-19T04:57:17.669Z,100315.00
2018-09-19T04:59:45.204Z,100309.00
2018-09-19T05:02:12.739Z,100313.00
2018-09-19T05:04:40.268Z,100315.00
2018-09-19T05:07:07.862Z,100313.00
2018-09-19T05:09:35.364Z,100316.00
2018-09-19T05:12:02.918Z,100326.00
2018-09-19T05:14:30.499Z,100322.00
2018-09-19T05:16:58.051Z,100324.00
2018-09-19T05:19:25.633Z,100339.00
2018-09-19T05:21:53.152Z,100343.00
2018-09-19T05:24:20.692Z,100350.00
2018-09-19T05:26:48.246Z,100347.00
2018-09-19T05:29:15.790Z,100348.00
2018-09-19T05:31:43.391Z,100347.00
2018-09-19T05:34:10.880Z,100361.00
2018-09-19T05:36:38.427Z,100365.00
2018-09-19T05:39:07.095Z,100362.00
2018-09-19T05:41:34.741Z,100367.00
2018-09-19T05:44:02.292Z,100373.00
2018-09-19T05:46:29.898Z,100379.00
2018-09-19T05:48:57.397Z,100379.00
2018-09-19T05:51:24.946Z,100389.00
2018-09-19T05:53:52.467Z,100381.00
2018-09-19T05:56:20.008Z,100386.00
2018-09-19T05:58:47.536Z,100382.00
2018-09-19T06:01:15.083Z,100385.00
2018-09-19T06:03:42.614Z,100397.00
2018-09-19T06:06:10.169Z,100392.00
2018-09-19T06:08:37.711Z,100397.00
2018-09-19T06:11:05.436Z,100402.00
2018-09-19T06:13:32.961Z,100399.00
2018-09-19T06:16:00.512Z,100397.00
2018-09-19T06:18:28.071Z,100402.00
2018-09-19T06:20:55.596Z,100397.00
2018-09-19T06:23:23.131Z,100405.00
2018-09-19T06:25:50.702Z,100410.00
2018-09-19T06:28:18.209Z,100424.00
2018-09-19T06:30:45.728Z,100418.00
2018-09-19T06:33:13.365Z,100423.00
2018-09-19T06:35:40.815Z,100438.00
2018-09-19T06:38:08.347Z,100436.00
2018-09-19T06:40:35.922Z,100440.00
2018-09-19T06:43:03.536Z,100451.00
2018-09-19T06:45:31.099Z,100447.00
2018-09-19T06:47:58.591Z,100447.00
2018-09-19T06:50:26.120Z,100451.00
2018-09-19T06:52:53.643Z,100460.00
2018-09-19T06:55:21.161Z,100457.00
2018-09-19T06:57:48.746Z,100462.00
2018-09-19T07:00:16.273Z,100467.00
2018-09-19T07:02:43.841Z,100467.00
2018-09-19T07:05:11.331Z,100463.00
2018-09-19T07:07:38.851Z,100458.00
2018-09-19T07:10:06.382Z,100463.00
2018-09-19T07:12:33.916Z,100472.00
2018-09-19T07:15:01.443Z,100470.00
2018-09-19T07:17:28.994Z,100474.00
2018-09-19T07:19:56.539Z,100473.00
2018-09-19T07:22:24.067Z,100469.00
2018-09-19T07:24:51.587Z,100474.00
2018-09-19T07:27:19.113Z,100474.00
2018-09-19T07:29:46.640Z,100486.00
2018-09-19T07:32:14.195Z,100484.00
2018-09-19T07:34:41.804Z,100480.00
2018-09-19T07:37:09.345Z,100492.00
2018-09-19T07:39:36.872Z,100491.00
2018-09-19T07:42:04.493Z,100502.00
2018-09-19T07:44:31.987Z,100502.00
2018-09-19T07:46:59.521Z,100505.00
2018-09-19T07:49:27.085Z,100518.00
2018-09-19T07:51:54.620Z,100513.00
2018-09-19T07:54:22.164Z,100519.00
2018-09-19T07:56:49.754Z,100517.00
2018-09-19T07:59:17.251Z,100519.00
2018-09-19T08:01:44.768Z,100519.00
2018-09-19T08:04:12.316Z,100527.00
2018-09-19T08:06:39.862Z,100522.00
2018-09-19T08:09:08.313Z,100527.00
2018-09-19T08:11:35.782Z,100532.00
2018-09-19T08:14:03.468Z,100528.00
2018-09-19T08:16:31.148Z,100528.00
2018-09-19T08:18:58.670Z,100527.00
2018-09-19T08:21:26.214Z,100538.00
2018-09-19T08:23:53.907Z,100546.00
2018-09-19T08:26:21.464Z,100538.00
2018-09-19T08:28:49.011Z,100539.00
2018-09-19T08:31:16.545Z,100535.00
2018-09-19T08:33:44.260Z,100545.00
2018-09-19T08:36:11.909Z,100545.00
2018-09-19T08:38:39.588Z,100550.00
2018-09-19T08:41:07.158Z,100556.00
2018-09-19T08:43:34.687Z,100551.00
2018-09-19T08:46:02.409Z,100561.00
2018-09-19T08:48:29.949Z,100552.00
2018-09-19T08:50:57.487Z,100554.00
2018-09-19T08:53:25.031Z,100555.00
2018-09-19T08:55:52.581Z,100559.00
2018-09-19T08:58:20.120Z,100555.00
2018-09-19T09:00:47.650Z,100556.00
2018-09-19T09:03:15.203Z,100551.00
2018-09-19T09:05:42.739Z,100551.00
2018-09-19T09:08:10.288Z,100539.00
2018-09-19T09:10:37.840Z,100543.00
2018-09-19T09:13:05.612Z,100555.00
2018-09-19T09:15:33.184Z,100542.00
2018-09-19T09:18:00.734Z,100541.00
2018-09-19T09:20:28.301Z,100544.00
2018-09-19T09:22:55.844Z,100543.00
2018-09-19T09:25:23.384Z,100539.00
2018-09-19T09:27:50.926Z,100535.00
2018-09-19T09:30:18.473Z,100538.00
2018-09-19T09:32:46.021Z,100541.00
2018-09-19T09:35:14.803Z,100541.00
2018-09-19T09:37:43.506Z,100535.00
2018-09-19T09:40:11.126Z,100539.00
2018-09-19T09:42:38.638Z,100537.00
2018-09-19T09:45:06.209Z,100533.00
2018-09-19T09:47:33.699Z,100538.00
2018-09-19T09:50:01.244Z,100541.00
2018-09-19T09:52:28.768Z,100534.00
2018-09-19T09:54:58.360Z,100535.00
2018-09-19T09:57:25.895Z,100538.00
2018-09-19T09:59:53.449Z,100535.00
2018-09-19T10:02:34.221Z,100533.00
2018-09-19T10:05:01.789Z,100531.00
2018-09-19T10:07:29.332Z,100518.00
2018-09-19T10:09:56.861Z,100522.00
2018-09-19T10:12:24.388Z,100511.00
2018-09-19T10:14:51.904Z,100515.00
2018-09-19T10:17:19.427Z,100513.00
2018-09-19T10:19:46.952Z,100512.00
2018-09-19T10:22:14.478Z,100505.00
2018-09-19T10:24:41.995Z,100505.00
2018-09-19T10:27:09.506Z,100504.00
2018-09-19T10:29:37.088Z,100507.00
2018-09-19T10:32:04.630Z,100510.00
2018-09-19T10:34:32.147Z,100505.00
2018-09-19T10:36:59.663Z,100500.00
2018-09-19T10:39:27.184Z,100500.00
2018-09-19T10:41:54.709Z,100502.00
2018-09-19T10:44:22.248Z,100501.00
2018-09-19T10:46:49.775Z,100495.00
2018-09-19T10:49:17.313Z,100494.00
2018-09-19T10:51:45.133Z,100495.00
2018-09-19T10:54:12.696Z,100490.00
2018-09-19T10:56:40.259Z,100488.00
2018-09-19T10:59:07.803Z,100490.00
2018-09-19T11:01:35.347Z,100491.00
2018-09-19T11:04:02.899Z,100491.00
2018-09-19T11:06:30.452Z,100495.00
2018-09-19T11:08:57.974Z,100499.00
2018-09-19T11:11:25.517Z,100498.00
2018-09-19T11:16:27.335Z,100492.00
2018-09-19T11:18:54.871Z,100495.00
2018-09-19T11:21:22.408Z,100488.00
2018-09-19T11:23:49.935Z,100480.00
2018-09-19T11:26:17.514Z,100475.00
2018-09-19T11:28:45.055Z,100476.00
2018-09-19T11:31:12.639Z,100486.00
2018-09-19T11:33:40.206Z,100484.00
2018-09-19T11:36:07.731Z,100485.00
2018-09-19T11:38:35.281Z,100482.00
2018-09-19T11:41:02.849Z,100479.00
2018-09-19T11:43:30.416Z,100479.00
2018-09-19T11:45:58.514Z,100476.00
2018-09-19T11:48:26.035Z,100469.00
2018-09-19T11:50:53.601Z,100467.00
2018-09-19T11:53:27.115Z,100475.00
2018-09-19T11:55:55.400Z,100475.00
2018-09-19T11:58:22.964Z,100470.00
2018-09-19T12:00:50.550Z,100469.00
2018-09-19T12:03:18.086Z,100468.00
2018-09-19T12:05:45.636Z,100455.00
2018-09-19T12:08:13.164Z,100459.00
2018-09-19T12:10:40.708Z,100454.00
2018-09-19T12:13:08.240Z,100452.00
2018-09-19T12:15:35.832Z,100461.00
2018-09-19T12:18:03.364Z,100457.00
2018-09-19T12:20:31.213Z,100460.00
2018-09-19T12:22:58.748Z,100458.00
2018-09-19T12:25:26.848Z,100455.00
2018-09-19T12:27:54.380Z,100449.00
2018-09-19T12:30:21.915Z,100448.00
2018-09-19T12:32:49.429Z,100444.00
2018-09-19T12:35:16.985Z,100444.00
2018-09-19T12:37:44.661Z,100449.00
2018-09-19T12:40:12.221Z,100440.00
2018-09-19T12:42:39.762Z,100444.00
2018-09-19T12:45:07.307Z,100445.00
2018-09-19T12:47:34.831Z,100436.00
2018-09-19T12:50:02.378Z,100437.00
2018-09-19T12:52:29.925Z,100441.00
2018-09-19T12:54:57.470Z,100442.00
2018-09-19T12:57:25.007Z,100439.00
2018-09-19T12:59:52.553Z,100439.00
2018-09-19T13:02:20.135Z,100431.00
2018-09-19T13:04:47.682Z,100431.00
2018-09-19T13:07:15.231Z,100428.00
2018-09-19T13:09:42.780Z,100434.00
2018-09-19T13:12:10.355Z,100425.00
2018-09-19T13:14:37.891Z,100427.00
2018-09-19T13:17:05.448Z,100423.00
2018-09-19T13:19:32.992Z,100420.00
2018-09-19T13:22:00.532Z,100425.00
2018-09-19T13:24:49.537Z,100416.00
2018-09-19T13:27:17.091Z,100420.00
2018-09-19T13:29:44.626Z,100416.00
2018-09-19T13:32:12.225Z,100414.00
2018-09-19T13:35:00.463Z,100412.00
2018-09-19T13:37:27.988Z,100409.00
2018-09-19T13:39:55.528Z,100409.00
2018-09-19T13:42:23.069Z,100410.00
2018-09-19T13:48:07.168Z,100410.00
2018-09-19T13:51:01.528Z,100404.00
2018-09-19T13:53:29.069Z,100410.00
2018-09-19T13:55:56.624Z,100406.00
2018-09-19T13:58:24.139Z,100413.00
2018-09-19T14:00:51.672Z,100407.00
2018-09-19T14:03:26.091Z,100401.00
2018-09-19T14:05:53.612Z,100399.00
2018-09-19T14:08:21.142Z,100403.00
2018-09-19T14:10:48.658Z,100403.00
2018-09-19T14:13:16.167Z,100405.00
2018-09-19T14:15:43.696Z,100399.00
2018-09-19T14:18:11.203Z,100392.00
2018-09-19T14:20:38.729Z,100394.00
2018-09-19T14:23:06.271Z,100394.00
2018-09-19T14:25:34.140Z,100396.00
2018-09-19T14:28:01.694Z,100392.00
2018-09-19T14:30:29.220Z,100391.00
2018-09-19T14:32:57.255Z,100389.00
2018-09-19T14:35:24.826Z,100393.00
2018-09-19T14:37:52.365Z,100390.00
2018-09-19T14:40:19.920Z,100387.00
2018-09-19T14:42:47.468Z,100387.00
2018-09-19T14:45:15.011Z,100387.00
2018-09-19T14:47:42.555Z,100395.00
2018-09-19T14:50:10.108Z,100395.00
2018-09-19T14:52:38.416Z,100388.00
2018-09-19T14:55:06.000Z,100384.00
2018-09-19T14:57:33.535Z,100384.00
2018-09-19T15:00:01.072Z,100375.00
2018-09-19T15:02:28.603Z,100377.00
2018-09-19T15:04:56.134Z,100373.00
2018-09-19T15:07:23.667Z,100377.00
2018-09-19T15:09:51.192Z,100368.00
2018-09-19T15:12:18.735Z,100366.00
2018-09-19T15:14:46.264Z,100363.00
2018-09-19T15:17:13.799Z,100364.00
2018-09-19T15:19:41.340Z,100356.00
2018-09-19T15:22:08.877Z,100359.00
2018-09-19T15:24:36.419Z,100362.00
2018-09-19T15:27:04.193Z,100360.00
2018-09-19T15:29:31.736Z,100353.00
2018-09-19T15:31:59.289Z,100350.00
2018-09-19T15:34:26.824Z,100348.00
2018-09-19T15:36:54.423Z,100355.00
2018-09-19T15:39:21.936Z,100351.00
2018-09-19T15:41:49.447Z,100349.00
2018-09-19T15:44:16.985Z,100358.00
2018-09-19T15:46:44.487Z,100344.00
2018-09-19T15:49:12.096Z,100340.00
2018-09-19T15:51:39.629Z,100339.00
2018-09-19T15:54:07.160Z,100341.00
2018-09-19T15:56:34.681Z,100340.00
2018-09-19T15:59:02.215Z,100352.00
2018-09-19T16:01:35.592Z,100344.00
2018-09-19T16:04:03.150Z,100346.00
2018-09-19T16:06:30.668Z,100350.00
2018-09-19T16:08:58.224Z,100347.00
2018-09-19T16:11:25.801Z,100347.00
2018-09-19T16:13:53.319Z,100347.00
2018-09-19T16:16:20.897Z,100350.00
2018-09-19T16:18:48.463Z,100343.00
2018-09-19T16:21:15.990Z,100345.00
2018-09-19T16:23:43.507Z,100352.00
2018-09-19T16:26:11.023Z,100352.00
2018-09-19T16:28:39.103Z,100352.00
2018-09-19T16:31:06.959Z,100354.00
2018-09-19T16:33:34.497Z,100359.00
2018-09-19T16:36:02.028Z,100360.00
2018-09-19T16:38:29.564Z,100358.00
2018-09-19T16:40:57.101Z,100360.00
2018-09-19T16:43:24.627Z,100359.00
2018-09-19T16:45:52.171Z,100362.00
2018-09-19T16:48:19.682Z,100368.00
2018-09-19T16:50:47.199Z,100365.00
2018-09-19T16:53:14.767Z,100357.00
2018-09-19T16:55:42.299Z,100366.00
2018-09-19T16:58:09.844Z,100361.00
2018-09-19T17:00:37.365Z,100366.00
2018-09-19T17:03:04.904Z,100366.00
2018-09-19T17:05:32.498Z,100363.00
2018-09-19T17:07:59.983Z,100369.00
2018-09-19T17:10:27.505Z,100368.00
2018-09-19T17:12:55.031Z,100363.00
2018-09-19T17:15:22.619Z,100370.00
2018-09-19T17:17:50.103Z,100365.00
2018-09-19T17:20:17.616Z,100368.00
2018-09-19T17:22:45.134Z,100372.00
2018-09-19T17:25:12.665Z,100368.00
2018-09-19T17:27:40.205Z,100368.00
2018-09-19T17:30:07.728Z,100371.00
2018-09-19T17:32:35.236Z,100374.00
2018-09-19T17:35:02.796Z,100379.00
2018-09-19T17:37:30.331Z,100381.00
2018-09-19T17:39:57.861Z,100374.00
2018-09-19T17:42:25.382Z,100381.00
2018-09-19T17:44:52.906Z,100372.00
2018-09-19T17:47:20.447Z,100379.00
2018-09-19T17:49:48.033Z,100376.00
2018-09-19T17:52:15.518Z,100369.00
2018-09-19T17:54:43.049Z,100371.00
2018-09-19T17:57:10.580Z,100376.00
2018-09-19T17:59:38.115Z,100377.00
2018-09-19T18:02:05.635Z,100373.00
2018-09-19T18:04:33.178Z,100375.00
2018-09-19T18:07:00.711Z,100390.00
2018-09-19T18:09:28.232Z,100385.00
2018-09-19T18:11:55.743Z,100384.00
2018-09-19T18:14:23.284Z,100393.00
2018-09-19T18:16:50.792Z,100397.00
2018-09-19T18:19:18.290Z,100390.00
2018-09-19T18:21:45.830Z,100387.00
2018-09-19T18:24:13.351Z,100393.00
2018-09-19T18:26:40.872Z,100391.00
2018-09-19T18:29:08.407Z,100387.00
2018-09-19T18:31:35.924Z,100385.00
2018-09-19T18:34:03.447Z,100390.00
2018-09-19T18:36:30.967Z,100392.00
2018-09-19T18:38:58.509Z,100392.00
2018-09-19T18:41:26.051Z,100390.00
2018-09-19T18:43:53.606Z,100399.00
2018-09-19T18:46:21.128Z,100400.00
2018-09-19T18:48:48.655Z,100397.00
2018-09-19T18:51:16.175Z,100392.00
2018-09-19T18:53:43.683Z,100394.00
2018-09-19T18:56:11.203Z,100394.00
2018-09-19T18:58:38.722Z,100400.00
2018-09-19T19:01:06.508Z,100398.00
2018-09-19T19:03:34.038Z,100402.00
2018-09-19T19:06:01.611Z,100401.00
2018-09-19T19:08:29.079Z,100412.00
2018-09-19T19:10:56.603Z,100404.00
2018-09-19T19:13:24.115Z,100402.00
2018-09-19T19:15:51.633Z,100397.00
2018-09-19T19:18:19.143Z,100399.00
2018-09-19T19:21:16.838Z,100391.00
2018-09-19T19:23:44.363Z,100392.00
2018-09-19T19:32:25.439Z,100399.00
2018-09-19T19:34:52.975Z,100396.00
2018-09-19T19:37:20.543Z,100398.00
2018-09-19T19:42:49.233Z,100400.00
2018-09-19T19:45:16.785Z,100410.00
2018-09-19T19:47:44.320Z,100409.00
2018-09-19T19:50:11.852Z,100398.00
2018-09-19T19:52:39.393Z,100408.00
2018-09-19T19:55:06.973Z,100408.00
2018-09-19T19:57:34.503Z,100407.00
2018-09-19T20:00:02.075Z,100408.00
2018-09-19T20:02:29.621Z,100417.00
2018-09-19T20:04:57.272Z,100418.00
2018-09-19T20:07:24.797Z,100410.00
2018-09-19T20:09:52.340Z,100412.00
2018-09-19T20:12:19.893Z,100417.00
2018-09-19T20:14:47.430Z,100413.00
2018-09-19T20:17:14.951Z,100420.00
2018-09-19T20:19:42.491Z,100413.00
2018-09-19T20:22:10.465Z,100413.00
2018-09-19T20:24:38.207Z,100417.00
2018-09-19T20:27:06.351Z,100415.00
2018-09-19T20:29:33.908Z,100427.00
2018-09-19T20:32:01.458Z,100421.00
2018-09-19T20:34:28.988Z,100418.00
2018-09-19T20:36:56.515Z,100418.00
2018-09-19T20:39:24.024Z,100423.00
2018-09-19T20:41:51.551Z,100413.00
2018-09-19T20:44:19.069Z,100425.00
2018-09-19T20:46:46.616Z,100418.00
2018-09-19T20:49:14.123Z,100429.00
2018-09-19T20:51:41.655Z,100419.00
2018-09-19T20:54:09.177Z,100425.00
2018-09-19T20:56:36.694Z,100428.00
2018-09-19T20:59:04.776Z,100421.00
2018-09-19T21:01:32.303Z,100425.00
2018-09-19T21:03:59.812Z,100427.00
2018-09-19T21:06:27.343Z,100427.00
2018-09-19T21:09:00.840Z,100439.00
2018-09-19T21:11:28.363Z,100440.00
2018-09-19T21:16:57.327Z,100436.00
2018-09-19T21:19:24.844Z,100438.00
2018-09-19T21:21:52.419Z,100441.00
2018-09-19T21:24:19.929Z,100444.00
2018-09-19T21:26:47.468Z,100446.00
2018-09-19T21:29:23.624Z,100436.00
2018-09-19T21:44:09.676Z,100432.00
2018-09-19T21:49:37.911Z,100430.00
2018-09-19T21:52:05.615Z,100441.00
2018-09-19T21:54:33.142Z,100439.00
2018-09-19T21:57:00.671Z,100435.00
2018-09-19T21:59:28.192Z,100434.00
2018-09-19T22:01:58.839Z,100428.00
2018-09-19T22:04:26.627Z,100435.00
2018-09-19T22:06:54.195Z,100435.00
2018-09-19T22:09:21.716Z,100429.00
2018-09-19T22:11:49.236Z,100439.00
2018-09-19T22:14:16.764Z,100428.00
2018-09-19T22:16:44.279Z,100439.00
2018-09-19T22:19:11.824Z,100429.00
2018-09-19T22:21:39.370Z,100428.00
2018-09-19T22:24:07.015Z,100429.00
2018-09-19T22:29:35.336Z,100430.00
2018-09-19T22:32:22.400Z,100428.00
2018-09-19T22:34:49.925Z,100425.00
2018-09-19T22:37:17.506Z,100426.00
2018-09-19T22:39:45.047Z,100428.00
2018-09-19T22:42:12.644Z,100430.00
2018-09-19T22:44:40.259Z,100423.00
2018-09-19T22:47:07.820Z,100415.00
2018-09-19T22:49:35.387Z,100418.00
2018-09-19T22:52:02.937Z,100420.00
2018-09-19T22:54:30.467Z,100424.00
2018-09-19T22:56:58.007Z,100425.00
2018-09-19T22:59:25.551Z,100425.00
2018-09-19T23:01:53.118Z,100418.00
2018-09-19T23:04:20.646Z,100426.00
2018-09-19T23:06:48.183Z,100422.00
2018-09-19T23:09:15.720Z,100422.00
2018-09-19T23:11:43.264Z,100425.00
2018-09-19T23:14:10.808Z,100423.00
2018-09-19T23:16:38.369Z,100425.00
2018-09-19T23:19:05.908Z,100431.00
2018-09-19T23:21:33.452Z,100422.00
2018-09-19T23:24:00.975Z,100430.00
2018-09-19T23:26:28.515Z,100424.00
2018-09-19T23:28:56.048Z,100419.00
2018-09-19T23:31:23.590Z,100419.00
2018-09-19T23:33:51.144Z,100417.00
2018-09-19T23:36:18.971Z,100418.00
2018-09-19T23:38:46.565Z,100408.00
2018-09-19T23:41:14.116Z,100412.00
2018-09-19T23:43:41.638Z,100408.00
2018-09-19T23:46:09.175Z,100416.00
2018-09-19T23:48:36.717Z,100415.00
2018-09-19T23:51:04.268Z,100417.00
2018-09-19T23:53:31.816Z,100416.00
2018-09-19T23:55:59.364Z,100423.00
2018-09-19T23:58:26.907Z,100411.00
